Time;durP1;ratioP1;P1;durP2;ratioP2;P2;SDS_P1;SDS_P2;PMS_P1;PMS_P2;Temp;Humidity;BMP_temperature;BMP_pressure;BME280_temperature;BME280_humidity;BME280_pressure;Samples;Min_cycle;Max_cycle;Signal;HPM_P1;HPM_P2
2023/06/09 00:01:44;;;;;;;7.82;5.68;;;19.30;99.90;;;;;;5076034;28;20221;-88
2023/06/09 00:04:13;;;;;;;6.45;5.13;;;19.30;99.90;;;;;;5074606;28;20180;-88
2023/06/09 00:06:39;;;;;;;6.10;5.00;;;19.30;99.90;;;;;;5075585;28;20253;-86
2023/06/09 00:09:07;;;;;;;7.70;5.20;;;19.30;99.90;;;;;;5074231;28;20213;-87
2023/06/09 00:11:33;;;;;;;6.45;5.07;;;19.30;99.90;;;;;;5074418;28;20211;-86
2023/06/09 00:13:59;;;;;;;7.07;5.68;;;19.30;99.90;;;;;;5074706;28;20576;-86
2023/06/09 00:16:28;;;;;;;6.00;5.25;;;19.20;99.90;;;;;;5075591;28;20567;-85
2023/06/09 00:18:54;;;;;;;5.68;4.70;;;19.10;99.90;;;;;;5075412;28;20653;-86
2023/06/09 00:21:20;;;;;;;6.03;4.78;;;19.10;99.90;;;;;;5073946;28;20188;-86
2023/06/09 00:23:46;;;;;;;9.80;5.72;;;19.10;99.90;;;;;;5073115;28;20177;-86
2023/06/09 00:26:13;;;;;;;7.50;5.40;;;19.00;99.90;;;;;;5075491;28;20201;-86
2023/06/09 00:28:39;;;;;;;7.63;5.50;;;19.00;99.90;;;;;;5074025;28;20212;-86
2023/06/09 00:31:06;;;;;;;6.68;5.30;;;19.00;99.90;;;;;;5074029;28;20180;-86
2023/06/09 00:33:32;;;;;;;6.68;5.55;;;18.90;99.90;;;;;;5073806;28;20267;-87
2023/06/09 00:35:58;;;;;;;6.68;5.97;;;19.00;99.90;;;;;;5075065;28;20181;-86
2023/06/09 00:38:24;;;;;;;7.53;6.10;;;18.90;99.90;;;;;;5073884;28;20701;-87
2023/06/09 00:40:50;;;;;;;11.07;6.40;;;19.00;99.90;;;;;;5075099;28;20284;-87
2023/06/09 00:43:16;;;;;;;7.90;6.45;;;19.00;99.90;;;;;;5073775;28;20268;-87
2023/06/09 00:45:41;;;;;;;6.72;6.03;;;19.00;99.90;;;;;;5073866;28;20611;-86
2023/06/09 00:48:08;;;;;;;6.85;5.93;;;19.00;99.90;;;;;;5075080;28;20229;-87
2023/06/09 00:50:34;;;;;;;6.82;6.10;;;19.00;99.90;;;;;;5074709;28;20178;-87
2023/06/09 00:53:01;;;;;;;8.10;6.18;;;19.00;99.90;;;;;;5073596;28;20291;-87
2023/06/09 00:55:28;;;;;;;7.88;6.50;;;19.00;99.90;;;;;;5074850;28;20173;-87
2023/06/09 00:57:56;;;;;;;7.63;6.35;;;19.00;99.90;;;;;;5073620;28;20169;-87
2023/06/09 01:00:26;;;;;;;7.63;6.22;;;19.00;99.90;;;;;;5074646;28;20558;-87
2023/06/09 01:02:56;;;;;;;6.78;6.10;;;19.00;99.90;;;;;;5073133;28;20176;-87
2023/06/09 01:05:22;;;;;;;6.80;6.10;;;18.90;99.90;;;;;;5074871;28;20244;-87
2023/06/09 01:07:56;;;;;;;6.85;6.03;;;18.90;99.90;;;;;;5073245;28;20215;-86
2023/06/09 01:10:41;;;;;;;6.25;5.60;;;18.80;99.90;;;;;;5073319;28;20209;-87
2023/06/09 01:13:31;;;;;;;7.95;6.15;;;18.70;99.90;;;;;;5073143;28;20180;-87
2023/06/09 01:16:08;;;;;;;7.65;5.95;;;18.80;99.90;;;;;;5073290;28;20177;-86
2023/06/09 01:18:36;;;;;;;6.28;5.68;;;18.70;99.90;;;;;;5073090;28;20219;-86
2023/06/09 01:21:14;;;;;;;7.70;5.78;;;18.70;99.90;;;;;;5074274;28;20204;-86
2023/06/09 01:24:14;;;;;;;6.95;6.00;;;18.70;99.90;;;;;;5072751;28;20169;-86
2023/06/09 01:26:40;;;;;;;8.43;6.13;;;18.80;99.90;;;;;;5073007;28;20604;-86
2023/06/09 01:29:07;;;;;;;8.88;5.85;;;18.80;99.90;;;;;;5074063;28;20204;-86
2023/06/09 01:31:33;;;;;;;8.02;6.35;;;18.80;99.90;;;;;;5072807;28;20173;-86
2023/06/09 01:34:00;;;;;;;8.50;6.63;;;18.80;99.90;;;;;;5072674;28;20181;-86
2023/06/09 01:36:28;;;;;;;6.85;5.82;;;18.80;99.90;;;;;;5073617;28;20173;-85
2023/06/09 01:38:54;;;;;;;8.27;6.00;;;18.90;99.90;;;;;;5072760;28;20177;-86
2023/06/09 01:41:20;;;;;;;9.88;6.03;;;18.90;99.90;;;;;;5073997;28;20170;-86
2023/06/09 01:43:46;;;;;;;8.43;6.50;;;18.90;99.90;;;;;;5546872;22;20243;-86
2023/06/09 01:46:12;;;;;;;8.90;5.80;;;18.90;99.90;;;;;;5094437;28;20164;-86
2023/06/09 01:49:02;;;;;;;8.43;5.97;;;18.80;99.90;;;;;;5095070;28;20210;-87
2023/06/09 01:51:33;;;;;;;6.30;5.50;;;18.80;99.90;;;;;;5094458;28;20194;-86
2023/06/09 01:54:09;;;;;;;11.52;6.47;;;18.80;99.90;;;;;;5094395;28;20173;-87
2023/06/09 01:56:46;;;;;;;7.70;5.75;;;18.80;99.90;;;;;;5094371;28;20211;-86
2023/06/09 01:59:19;;;;;;;7.30;5.95;;;18.80;99.90;;;;;;5093714;28;20161;-86
2023/06/09 02:01:47;;;;;;;7.35;6.18;;;18.80;99.90;;;;;;5094094;28;20168;-87
2023/06/09 02:04:16;;;;;;;6.85;6.15;;;18.70;99.90;;;;;;5093852;28;20172;-86
2023/06/09 02:06:42;;;;;;;8.23;6.50;;;18.70;99.90;;;;;;5094787;28;20204;-86
2023/06/09 02:09:10;;;;;;;8.35;6.32;;;18.70;99.90;;;;;;5093986;28;20666;-87
2023/06/09 02:11:37;;;;;;;7.28;5.90;;;18.70;99.90;;;;;;5093739;28;20180;-88
2023/06/09 02:14:02;;;;;;;10.65;6.80;;;18.70;99.90;;;;;;5093333;28;20207;-89
2023/06/09 02:16:29;;;;;;;7.10;6.25;;;18.60;99.90;;;;;;5094294;28;20181;-87
2023/06/09 02:18:56;;;;;;;8.32;6.68;;;18.60;99.90;;;;;;5093459;28;20185;-89
2023/06/09 02:21:21;;;;;;;9.82;7.20;;;18.70;99.90;;;;;;5094203;28;20219;-89
2023/06/09 02:23:47;;;;;;;7.53;6.78;;;18.60;99.90;;;;;;5093878;28;20207;-87
2023/06/09 02:26:15;;;;;;;10.70;6.70;;;18.60;99.90;;;;;;5093636;28;20187;-88
2023/06/09 02:28:41;;;;;;;8.20;6.47;;;18.60;99.90;;;;;;5093506;28;20650;-88
2023/06/09 02:31:06;;;;;;;10.10;6.60;;;18.50;99.90;;;;;;5094295;28;20187;-88
2023/06/09 02:33:33;;;;;;;10.40;6.72;;;18.50;99.90;;;;;;5093910;28;20181;-86
2023/06/09 02:36:00;;;;;;;8.90;6.43;;;18.50;99.90;;;;;;5093930;28;20555;-87
2023/06/09 02:38:26;;;;;;;11.45;7.15;;;18.50;99.90;;;;;;5093627;28;20177;-87
2023/06/09 02:40:52;;;;;;;11.43;6.25;;;18.50;99.90;;;;;;5093819;28;20611;-88
2023/06/09 02:43:18;;;;;;;9.30;6.88;;;18.50;99.90;;;;;;5094067;28;20319;-88
2023/06/09 02:45:46;;;;;;;7.18;6.25;;;18.50;99.90;;;;;;5093724;28;20260;-87
2023/06/09 02:48:14;;;;;;;7.65;6.85;;;18.50;99.90;;;;;;5096128;28;20204;-88
2023/06/09 02:50:40;;;;;;;8.65;6.72;;;18.50;99.90;;;;;;5097254;28;20179;-88
2023/06/09 02:53:07;;;;;;;8.02;6.18;;;18.50;99.90;;;;;;5097645;28;20184;-87
2023/06/09 02:55:34;;;;;;;7.75;6.53;;;18.50;99.90;;;;;;5097724;28;20168;-87
2023/06/09 02:57:59;;;;;;;7.32;6.60;;;18.40;99.90;;;;;;5098464;28;20156;-87
2023/06/09 03:00:25;;;;;;;7.32;6.55;;;18.40;99.90;;;;;;5098575;28;20267;-88
2023/06/09 03:02:51;;;;;;;7.80;6.57;;;18.40;99.90;;;;;;5097729;28;20176;-87
2023/06/09 03:05:20;;;;;;;6.40;5.75;;;18.40;99.90;;;;;;5097955;28;20176;-87
2023/06/09 03:07:48;;;;;;;7.55;6.53;;;18.40;99.90;;;;;;5097014;28;20172;-88
2023/06/09 03:10:14;;;;;;;7.75;6.38;;;18.30;99.90;;;;;;5097170;28;20519;-87
2023/06/09 03:12:40;;;;;;;7.30;6.53;;;18.30;99.90;;;;;;5097009;28;20172;-87
2023/06/09 03:15:07;;;;;;;8.57;6.72;;;18.30;99.90;;;;;;5096805;28;20183;-88
2023/06/09 03:17:33;;;;;;;7.78;5.90;;;18.30;99.90;;;;;;5097318;28;20180;-87
2023/06/09 03:19:58;;;;;;;10.23;6.75;;;18.30;99.90;;;;;;5094190;28;20188;-87
2023/06/09 03:22:27;;;;;;;9.30;6.80;;;18.30;99.90;;;;;;5094741;28;20177;-89
2023/06/09 03:24:53;;;;;;;9.18;6.40;;;18.30;99.90;;;;;;5091563;28;20169;-88
2023/06/09 03:27:18;;;;;;;7.82;6.57;;;18.30;99.90;;;;;;5097351;28;20176;-88
2023/06/09 03:29:44;;;;;;;9.43;6.20;;;18.30;99.90;;;;;;5096752;28;20204;-88
2023/06/09 03:32:10;;;;;;;10.20;6.22;;;18.30;99.90;;;;;;5098338;28;20165;-89
2023/06/09 03:34:36;;;;;;;8.27;6.80;;;18.30;99.90;;;;;;5096880;28;20184;-88
2023/06/09 03:37:04;;;;;;;8.55;6.45;;;18.30;99.90;;;;;;5096779;28;20180;-88
2023/06/09 03:39:30;;;;;;;8.93;6.25;;;18.20;99.90;;;;;;5096736;28;20180;-88
2023/06/09 03:41:56;;;;;;;8.73;6.53;;;18.20;99.90;;;;;;5096658;28;20176;-88
2023/06/09 03:44:22;;;;;;;8.80;6.68;;;18.20;99.90;;;;;;5096462;28;20267;-88
2023/06/09 03:46:48;;;;;;;7.47;6.10;;;18.20;99.90;;;;;;5097705;28;20195;-88
2023/06/09 03:49:14;;;;;;;9.23;7.18;;;18.20;99.90;;;;;;5096036;28;20212;-87
2023/06/09 03:51:40;;;;;;;8.60;7.40;;;18.10;99.90;;;;;;5096257;28;20185;-88
2023/06/09 03:54:06;;;;;;;8.73;7.35;;;18.10;99.90;;;;;;5096144;28;20199;-87
2023/06/09 03:56:32;;;;;;;8.13;7.32;;;18.00;99.90;;;;;;5096439;28;20168;-88
2023/06/09 03:58:58;;;;;;;9.15;7.10;;;18.00;99.90;;;;;;5097099;28;20274;-88
2023/06/09 04:01:25;;;;;;;8.00;6.97;;;18.00;99.90;;;;;;5096220;28;20599;-88
2023/06/09 04:03:51;;;;;;;8.55;6.97;;;18.00;99.90;;;;;;5096101;28;20176;-87
2023/06/09 04:06:21;;;;;;;7.68;6.82;;;17.90;99.90;;;;;;5096180;28;20569;-88
2023/06/09 04:08:46;;;;;;;11.82;6.82;;;17.90;99.90;;;;;;5095956;28;20211;-88
2023/06/09 04:11:13;;;;;;;8.55;6.85;;;17.90;99.90;;;;;;5097307;28;20165;-88
2023/06/09 04:13:40;;;;;;;8.38;7.55;;;17.90;99.90;;;;;;5095628;28;20267;-88
2023/06/09 04:16:07;;;;;;;7.28;6.57;;;17.90;99.90;;;;;;5097142;28;20527;-88
2023/06/09 04:18:33;;;;;;;8.48;7.30;;;17.80;99.90;;;;;;5096036;28;20169;-88
2023/06/09 04:20:59;;;;;;;9.27;7.50;;;17.80;99.90;;;;;;5095925;28;20187;-88
2023/06/09 04:23:27;;;;;;;10.48;7.18;;;17.80;99.90;;;;;;5095923;28;20173;-88
2023/06/09 04:25:53;;;;;;;9.23;7.28;;;17.80;99.90;;;;;;5095952;28;20668;-88
2023/06/09 04:28:19;;;;;;;9.32;7.90;;;17.80;99.90;;;;;;5095821;28;20219;-88
2023/06/09 04:30:45;;;;;;;9.57;7.40;;;17.80;99.90;;;;;;5095525;28;20172;-89
2023/06/09 04:33:12;;;;;;;10.02;7.60;;;17.80;99.90;;;;;;5095106;28;20227;-88
2023/06/09 04:35:37;;;;;;;9.50;7.93;;;17.80;99.90;;;;;;5095292;28;20302;-89
2023/06/09 04:38:03;;;;;;;11.45;7.85;;;17.80;99.90;;;;;;5095824;28;20200;-89
2023/06/09 04:40:29;;;;;;;11.52;8.18;;;17.70;99.90;;;;;;5095621;28;20626;-89
2023/06/09 04:42:59;;;;;;;9.07;7.60;;;17.70;99.90;;;;;;5095193;28;20257;-88
2023/06/09 04:45:33;;;;;;;8.98;8.02;;;17.70;99.90;;;;;;5095267;28;20177;-88
2023/06/09 04:48:02;;;;;;;11.35;8.32;;;17.70;99.90;;;;;;5095089;28;20165;-88
2023/06/09 04:50:35;;;;;;;15.55;7.95;;;17.80;99.90;;;;;;5095013;28;20176;-88
2023/06/09 04:53:03;;;;;;;15.25;8.30;;;17.80;99.90;;;;;;5095316;28;20200;-87
2023/06/09 04:55:30;;;;;;;10.43;7.97;;;17.90;99.90;;;;;;5095180;28;20573;-88
2023/06/09 04:57:56;;;;;;;10.35;8.10;;;17.90;99.90;;;;;;5094800;28;20177;-88
2023/06/09 05:00:26;;;;;;;9.80;7.78;;;17.90;99.90;;;;;;5095040;28;20622;-88
2023/06/09 05:02:59;;;;;;;12.63;8.18;;;17.80;99.90;;;;;;5094891;28;20607;-88
2023/06/09 05:05:25;;;;;;;11.10;7.68;;;17.80;99.90;;;;;;5094916;28;20173;-87
2023/06/09 05:07:51;;;;;;;11.57;7.85;;;17.80;99.90;;;;;;5094980;28;20173;-89
2023/06/09 05:10:17;;;;;;;11.93;7.35;;;17.80;99.90;;;;;;5094450;28;20173;-88
2023/06/09 05:12:43;;;;;;;8.48;6.88;;;17.80;99.90;;;;;;5094796;28;20173;-88
2023/06/09 05:15:09;;;;;;;9.20;7.25;;;17.80;99.90;;;;;;5094727;28;20176;-88
2023/06/09 05:17:41;;;;;;;13.93;7.93;;;17.80;99.90;;;;;;5095213;28;20177;-88
2023/06/09 05:20:09;;;;;;;8.80;7.45;;;17.70;99.90;;;;;;5094863;28;20204;-87
2023/06/09 05:22:36;;;;;;;10.90;7.00;;;17.80;99.90;;;;;;5094743;28;20195;-87
2023/06/09 05:25:03;;;;;;;12.25;7.13;;;17.70;99.90;;;;;;5094785;28;20287;-88
2023/06/09 05:27:31;;;;;;;9.25;7.13;;;17.80;99.90;;;;;;5094817;28;20836;-89
2023/06/09 05:29:57;;;;;;;12.98;7.00;;;17.80;99.90;;;;;;5094798;28;20208;-88
2023/06/09 05:32:22;;;;;;;7.38;6.57;;;17.80;99.90;;;;;;5094828;28;20219;-88
2023/06/09 05:34:49;;;;;;;12.02;7.05;;;17.70;99.90;;;;;;5095353;28;20522;-88
2023/06/09 05:37:17;;;;;;;9.00;6.90;;;17.70;99.90;;;;;;5094936;28;20173;-89
2023/06/09 05:39:42;;;;;;;10.82;6.63;;;17.70;99.90;;;;;;5094207;28;20172;-89
2023/06/09 05:42:09;;;;;;;7.82;6.45;;;17.80;99.90;;;;;;5094358;28;20213;-89
2023/06/09 05:44:35;;;;;;;10.35;5.88;;;17.80;99.90;;;;;;5094360;28;20256;-88
2023/06/09 05:47:10;;;;;;;10.75;6.22;;;17.80;99.90;;;;;;5094253;28;20239;-89
2023/06/09 05:49:36;;;;;;;10.77;6.70;;;17.90;99.90;;;;;;5093935;28;20200;-88
2023/06/09 05:52:02;;;;;;;8.35;6.55;;;17.80;99.90;;;;;;5094220;28;20638;-90
2023/06/09 05:54:28;;;;;;;7.78;6.35;;;17.90;99.90;;;;;;5093871;28;20191;-88
2023/06/09 05:56:56;;;;;;;7.38;6.05;;;17.90;99.90;;;;;;5094372;28;20173;-90
2023/06/09 05:59:23;;;;;;;8.68;6.43;;;17.90;99.90;;;;;;5094369;28;20229;-89
2023/06/09 06:01:51;;;;;;;8.23;5.75;;;17.80;99.90;;;;;;5094032;28;20183;-88
2023/06/09 06:04:18;;;;;;;8.00;6.50;;;17.80;99.90;;;;;;5094148;28;20183;-88
2023/06/09 06:06:45;;;;;;;9.63;5.95;;;17.90;99.90;;;;;;5094290;28;20187;-89
2023/06/09 06:09:11;;;;;;;7.53;6.13;;;17.80;99.90;;;;;;5093923;28;20239;-88
2023/06/09 06:11:37;;;;;;;7.20;6.38;;;17.80;99.90;;;;;;5093684;28;20182;-88
2023/06/09 06:14:03;;;;;;;11.45;7.03;;;17.80;99.90;;;;;;5093709;28;20523;-88
2023/06/09 06:16:28;;;;;;;10.48;6.03;;;17.80;99.90;;;;;;5094336;28;20508;-89
2023/06/09 06:18:54;;;;;;;8.13;6.22;;;17.80;99.90;;;;;;5093766;28;20607;-89
2023/06/09 06:21:20;;;;;;;7.35;5.75;;;17.80;99.90;;;;;;5093910;28;20236;-88
2023/06/09 06:23:45;;;;;;;7.43;5.88;;;17.90;99.90;;;;;;5097376;28;20203;-89
2023/06/09 06:26:11;;;;;;;9.10;5.80;;;17.90;99.90;;;;;;5098558;28;20182;-89
2023/06/09 06:28:38;;;;;;;8.23;5.90;;;17.90;99.90;;;;;;5098312;28;20303;-89
2023/06/09 06:31:04;;;;;;;8.32;6.13;;;17.90;99.90;;;;;;5097468;28;20225;-90
2023/06/09 06:33:31;;;;;;;9.30;5.97;;;18.00;99.90;;;;;;5097436;28;20223;-90
2023/06/09 06:35:57;;;;;;;7.90;5.85;;;17.90;99.90;;;;;;5097984;28;20198;-91
2023/06/09 06:38:23;;;;;;;9.05;5.80;;;18.00;99.90;;;;;;5097389;28;20181;-90
2023/06/09 06:40:50;;;;;;;8.38;5.97;;;18.00;99.90;;;;;;5098118;28;20180;-89
2023/06/09 06:43:15;;;;;;;7.15;5.68;;;18.00;99.90;;;;;;5097585;28;20220;-90
2023/06/09 06:45:41;;;;;;;7.75;5.80;;;18.00;99.90;;;;;;5097901;28;20192;-90
2023/06/09 06:48:21;;;;;;;8.05;5.15;;;18.00;99.90;;;;;;5097662;28;20712;-89
2023/06/09 06:50:47;;;;;;;8.35;5.20;;;18.00;99.90;;;;;;5097341;28;20177;-88
2023/06/09 06:53:12;;;;;;;7.75;5.20;;;18.00;99.90;;;;;;5096843;28;20192;-91
2023/06/09 06:55:38;;;;;;;7.35;5.45;;;17.90;99.90;;;;;;5097669;28;20181;-88
2023/06/09 06:58:05;;;;;;;10.00;5.55;;;18.00;99.90;;;;;;5097357;28;20203;-90
2023/06/09 07:00:31;;;;;;;9.57;5.75;;;17.90;99.90;;;;;;5097575;28;20226;-89
2023/06/09 07:02:56;;;;;;;8.05;5.15;;;17.90;99.90;;;;;;5097556;28;20172;-87
2023/06/09 07:05:22;;;;;;;6.38;5.20;;;17.90;99.90;;;;;;5097207;28;20614;-87
2023/06/09 07:07:53;;;;;;;6.80;5.25;;;17.90;99.90;;;;;;5097492;28;20181;-90
2023/06/09 07:10:20;;;;;;;7.38;6.22;;;17.90;99.90;;;;;;5097432;28;20192;-89
2023/06/09 07:12:46;;;;;;;7.38;5.75;;;17.90;99.90;;;;;;5097278;28;20180;-89
2023/06/09 07:15:11;;;;;;;7.60;5.50;;;17.90;99.90;;;;;;5097426;28;20184;-89
2023/06/09 07:17:37;;;;;;;9.05;6.00;;;18.00;99.90;;;;;;5097241;28;20591;-89
2023/06/09 07:20:03;;;;;;;8.82;5.47;;;18.00;99.90;;;;;;5096710;28;20169;-89
2023/06/09 07:22:29;;;;;;;10.30;6.03;;;18.10;99.90;;;;;;5098199;28;20173;-88
2023/06/09 07:24:55;;;;;;;8.30;5.55;;;18.10;99.90;;;;;;5096941;28;20221;-89
2023/06/09 07:27:25;;;;;;;9.43;6.97;;;18.10;99.90;;;;;;5097022;28;20180;-89
2023/06/09 07:29:50;;;;;;;11.50;6.90;;;18.20;99.90;;;;;;5097127;28;20241;-89
2023/06/09 07:32:16;;;;;;;9.43;5.95;;;18.10;99.90;;;;;;5096848;28;20264;-89
2023/06/09 07:34:42;;;;;;;7.93;5.95;;;18.20;99.90;;;;;;5096044;28;20183;-89
2023/06/09 07:37:07;;;;;;;8.68;5.78;;;18.20;99.90;;;;;;5096598;28;20257;-88
2023/06/09 07:39:38;;;;;;;6.28;5.38;;;18.20;99.90;;;;;;5096738;28;20183;-88
2023/06/09 07:42:05;;;;;;;6.63;5.45;;;18.20;99.90;;;;;;5096923;28;20187;-88
2023/06/09 07:44:30;;;;;;;8.48;5.80;;;18.20;99.90;;;;;;5096657;28;20255;-89
2023/06/09 07:46:56;;;;;;;9.57;6.00;;;18.20;99.90;;;;;;5096504;28;20211;-87
2023/06/09 07:49:22;;;;;;;12.57;6.40;;;18.30;99.90;;;;;;5096336;28;20678;-89
2023/06/09 07:51:49;;;;;;;11.20;6.20;;;18.30;99.90;;;;;;5096338;28;20674;-88
2023/06/09 07:54:16;;;;;;;11.23;6.32;;;18.30;99.90;;;;;;5096764;28;20208;-87
2023/06/09 07:56:41;;;;;;;9.48;5.90;;;18.30;99.90;;;;;;5096282;28;20290;-88
2023/06/09 07:59:08;;;;;;;11.20;6.18;;;18.30;99.90;;;;;;5097710;28;20211;-87
2023/06/09 08:01:34;;;;;;;9.15;6.78;;;18.30;99.90;;;;;;5096052;28;20185;-88
2023/06/09 08:04:02;;;;;;;10.85;6.55;;;18.30;99.90;;;;;;5095865;28;20188;-88
2023/06/09 08:06:33;;;;;;;9.98;7.32;;;18.30;99.90;;;;;;5096367;28;20516;-89
2023/06/09 08:09:01;;;;;;;7.82;6.75;;;18.20;99.90;;;;;;5096086;28;20199;-88
2023/06/09 08:11:27;;;;;;;12.25;6.95;;;18.20;99.90;;;;;;5096285;28;20180;-88
2023/06/09 08:13:53;;;;;;;12.38;7.40;;;18.10;99.90;;;;;;5095939;28;20173;-89
2023/06/09 08:16:18;;;;;;;8.75;7.18;;;18.20;99.90;;;;;;5096416;28;20538;-91
2023/06/09 08:18:46;;;;;;;10.13;7.45;;;18.20;99.90;;;;;;5095814;28;20188;-90
2023/06/09 08:21:12;;;;;;;11.18;6.55;;;18.20;99.90;;;;;;5095980;28;20165;-89
2023/06/09 08:23:43;;;;;;;10.18;7.70;;;18.30;99.90;;;;;;5095590;28;20168;-91
2023/06/09 08:26:09;;;;;;;11.73;7.43;;;18.30;99.90;;;;;;5096125;28;20176;-89
2023/06/09 08:28:38;;;;;;;10.70;7.50;;;18.40;99.90;;;;;;5095844;28;20218;-92
2023/06/09 08:31:04;;;;;;;10.07;7.82;;;18.50;99.90;;;;;;5095907;28;20583;-90
2023/06/09 08:33:35;;;;;;;10.70;7.28;;;18.60;99.90;;;;;;5095891;28;20184;-88
2023/06/09 08:36:04;;;;;;;12.98;7.68;;;18.70;99.90;;;;;;5095589;28;20169;-88
2023/06/09 08:38:38;;;;;;;12.52;7.68;;;18.90;99.90;;;;;;5095640;28;20176;-90
2023/06/09 08:41:08;;;;;;;10.82;7.72;;;19.00;99.90;;;;;;5095624;28;20256;-89
2023/06/09 08:43:34;;;;;;;10.40;7.53;;;19.20;99.90;;;;;;5095208;28;20235;-88
2023/06/09 08:46:02;;;;;;;12.40;7.35;;;19.30;99.90;;;;;;5094690;28;20276;-89
2023/06/09 08:48:32;;;;;;;9.90;7.82;;;19.60;99.90;;;;;;5095452;28;20207;-90
2023/06/09 08:50:58;;;;;;;9.07;6.60;;;19.80;99.90;;;;;;5095475;28;20208;-91
2023/06/09 08:53:25;;;;;;;9.10;6.82;;;20.00;99.90;;;;;;5095510;28;20599;-91
2023/06/09 08:55:53;;;;;;;10.35;7.20;;;20.10;99.90;;;;;;5095320;28;20181;-92
2023/06/09 08:58:22;;;;;;;10.77;6.60;;;20.20;99.90;;;;;;5095653;28;20180;-90
2023/06/09 09:00:52;;;;;;;8.43;6.10;;;20.40;99.90;;;;;;5095285;28;20180;-91
2023/06/09 09:03:18;;;;;;;10.75;6.65;;;20.40;99.90;;;;;;5094983;28;20226;-91
2023/06/09 09:05:45;;;;;;;11.45;6.32;;;20.50;99.90;;;;;;5094706;28;20184;-91
2023/06/09 09:08:14;;;;;;;8.15;5.38;;;20.60;99.90;;;;;;5094752;28;20177;-92
2023/06/09 09:10:45;;;;;;;7.22;5.25;;;20.60;99.90;;;;;;5095161;28;20389;-91
2023/06/09 09:13:11;;;;;;;8.00;5.50;;;20.60;99.90;;;;;;5095069;28;20173;-89
2023/06/09 09:15:46;;;;;;;11.77;6.20;;;20.70;99.90;;;;;;5095175;28;20172;-89
2023/06/09 09:18:12;;;;;;;11.77;5.18;;;20.70;99.90;;;;;;5095713;28;20259;-91
2023/06/09 09:20:37;;;;;;;6.60;5.15;;;20.80;99.90;;;;;;5094643;28;20208;-89
2023/06/09 09:23:05;;;;;;;9.27;5.65;;;20.90;99.90;;;;;;5094868;28;20254;-89
2023/06/09 09:25:32;;;;;;;12.40;5.32;;;21.20;99.90;;;;;;5094887;28;20177;-94
2023/06/09 09:28:08;;;;;;;8.00;5.20;;;21.50;99.90;;;;;;5094890;28;20200;-90
2023/06/09 09:30:47;;;;;;;8.52;5.45;;;22.10;99.90;;;;;;5094557;28;20184;-93
2023/06/09 09:33:22;;;;;;;11.30;5.45;;;22.50;98.80;;;;;;5094692;28;20176;-92
2023/06/09 09:35:50;;;;;;;7.72;5.38;;;22.90;97.50;;;;;;5094498;28;20183;-90
2023/06/09 09:38:20;;;;;;;13.13;5.05;;;23.30;97.60;;;;;;5094723;28;20177;-93
2023/06/09 09:40:54;;;;;;;8.05;5.03;;;23.40;96.50;;;;;;5094601;28;20483;-89
2023/06/09 09:43:26;;;;;;;10.55;5.15;;;23.70;96.60;;;;;;5094285;28;20319;-92
2023/06/09 09:45:53;;;;;;;12.90;5.35;;;23.90;96.70;;;;;;5094070;28;20168;-88
2023/06/09 09:48:22;;;;;;;7.20;4.80;;;24.10;96.30;;;;;;5094259;28;20628;-88
2023/06/09 09:50:51;;;;;;;7.55;4.97;;;24.30;95.90;;;;;;5094270;28;20180;-90
2023/06/09 09:53:20;;;;;;;8.57;4.65;;;24.40;95.70;;;;;;5094572;28;20177;-89
2023/06/09 09:55:46;;;;;;;7.15;4.97;;;24.40;97.50;;;;;;5094239;28;20185;-92
2023/06/09 09:58:14;;;;;;;10.68;5.10;;;24.20;96.60;;;;;;5094194;28;20179;-93
2023/06/09 10:00:44;;;;;;;8.27;4.97;;;24.00;95.60;;;;;;5094013;28;20534;-92
2023/06/09 10:03:17;;;;;;;8.98;4.80;;;23.80;96.90;;;;;;5094682;28;20172;-89
2023/06/09 10:05:48;;;;;;;7.93;4.97;;;23.70;97.50;;;;;;5094121;28;20178;-90
2023/06/09 10:08:24;;;;;;;8.90;5.10;;;23.50;97.50;;;;;;5094266;28;20234;-93
2023/06/09 10:10:51;;;;;;;7.70;4.70;;;23.40;97.00;;;;;;5094432;28;20180;-90
2023/06/09 10:13:17;;;;;;;8.18;4.50;;;23.40;97.80;;;;;;5094169;28;20168;-92
2023/06/09 10:15:43;;;;;;;7.15;4.20;;;23.30;97.00;;;;;;5094237;28;20229;-94
2023/06/09 10:18:11;;;;;;;7.10;4.40;;;23.30;95.90;;;;;;5094300;28;20176;-93
2023/06/09 10:20:37;;;;;;;5.78;4.28;;;23.30;95.60;;;;;;5095093;28;20172;-91
2023/06/09 10:23:05;;;;;;;9.20;4.65;;;23.40;96.20;;;;;;5094090;28;20179;-94
2023/06/09 10:25:31;;;;;;;5.63;4.65;;;23.50;95.90;;;;;;5093955;28;20637;-92
2023/06/09 10:27:59;;;;;;;11.48;4.78;;;23.70;96.20;;;;;;5094041;28;20177;-92
2023/06/09 10:30:26;;;;;;;8.35;4.65;;;23.80;96.20;;;;;;5094144;28;20195;-92
2023/06/09 10:33:08;;;;;;;5.15;4.35;;;24.20;95.70;;;;;;5093845;28;20176;-93
2023/06/09 10:35:36;;;;;;;9.10;4.55;;;24.70;96.60;;;;;;5093768;28;20591;-95
2023/06/09 10:38:35;;;;;;;12.45;4.80;;;25.10;95.50;;;;;;5094068;28;20215;-93
2023/06/09 10:41:12;;;;;;;6.95;3.88;;;25.30;94.80;;;;;;5050669;28;20184;-96
2023/06/09 10:43:38;;;;;;;8.07;4.50;;;25.50;95.40;;;;;;5093883;28;20224;-95
2023/06/09 10:46:04;;;;;;;6.95;4.20;;;25.40;93.80;;;;;;5093689;28;20259;-92
2023/06/09 10:48:49;;;;;;;10.85;4.50;;;25.40;93.80;;;;;;5094476;28;20199;-92
2023/06/09 10:51:47;;;;;;;8.70;4.53;;;25.10;93.00;;;;;;5094034;28;20184;-93
2023/06/09 10:54:14;;;;;;;7.13;4.68;;;24.90;93.50;;;;;;5094812;28;20153;-93
2023/06/09 10:56:46;;;;;;;8.43;4.40;;;24.70;93.50;;;;;;5093178;28;20184;-89
2023/06/09 10:59:25;;;;;;;9.15;4.38;;;24.60;95.00;;;;;;5094635;28;20202;-92
2023/06/09 11:02:02;;;;;;;7.78;4.38;;;24.50;93.80;;;;;;5093916;28;20246;-89
2023/06/09 11:04:46;;;;;;;6.55;4.18;;;24.70;94.90;;;;;;5093494;28;20176;-90
2023/06/09 11:07:20;;;;;;;7.30;4.40;;;25.00;95.50;;;;;;5093478;28;20179;-92
2023/06/09 11:10:00;;;;;;;6.88;4.13;;;24.90;95.50;;;;;;5096656;28;20208;-92
2023/06/09 11:12:49;;;;;;;12.07;4.85;;;25.00;95.30;;;;;;5097311;28;20156;-95
2023/06/09 11:15:16;;;;;;;8.43;4.65;;;25.10;94.70;;;;;;5097415;28;20165;-92
2023/06/09 11:17:50;;;;;;;9.80;4.47;;;25.30;95.40;;;;;;5097356;28;20264;-92
2023/06/09 11:20:18;;;;;;;8.45;4.50;;;25.60;95.30;;;;;;5097107;28;20595;-92
2023/06/09 11:22:50;;;;;;;6.82;4.13;;;25.80;95.80;;;;;;5097144;28;20169;-93
2023/06/09 11:25:18;;;;;;;7.78;4.70;;;25.90;92.80;;;;;;5097855;28;20176;-91
2023/06/09 11:27:54;;;;;;;8.75;4.60;;;26.30;94.00;;;;;;5097688;28;20275;-93
2023/06/09 11:30:29;;;;;;;7.95;4.43;;;26.40;92.10;;;;;;5097054;28;20730;-91
2023/06/09 11:33:04;;;;;;;7.20;4.10;;;26.70;93.10;;;;;;5097759;28;20172;-94
2023/06/09 11:35:39;;;;;;;11.45;4.88;;;26.90;93.50;;;;;;5096788;28;20179;-92
2023/06/09 11:38:10;;;;;;;9.18;4.57;;;27.00;91.70;;;;;;5097773;28;20172;-93
2023/06/09 11:40:50;;;;;;;7.22;4.22;;;26.80;92.20;;;;;;5096798;28;20172;-90
2023/06/09 11:43:19;;;;;;;7.55;5.03;;;26.80;94.30;;;;;;5097709;28;20219;-90
2023/06/09 11:45:45;;;;;;;7.78;4.93;;;26.40;95.50;;;;;;5096819;28;20191;-89
2023/06/09 11:48:11;;;;;;;7.45;4.75;;;26.30;96.10;;;;;;5096562;28;20607;-91
2023/06/09 11:50:43;;;;;;;9.23;4.97;;;26.20;97.70;;;;;;5096351;28;20237;-90
2023/06/09 11:53:17;;;;;;;6.55;3.92;;;26.30;97.20;;;;;;5096461;28;20172;-90
2023/06/09 11:55:43;;;;;;;10.13;4.78;;;26.70;92.00;;;;;;5097534;28;20227;-95
2023/06/09 11:58:10;;;;;;;5.80;4.25;;;26.90;91.40;;;;;;5097154;28;20204;-92
2023/06/09 12:00:45;;;;;;;8.40;4.97;;;27.10;92.40;;;;;;5096556;28;20184;-91
2023/06/09 12:03:11;;;;;;;5.50;4.88;;;27.20;94.50;;;;;;5096418;28;20176;-92
2023/06/09 12:05:37;;;;;;;6.07;4.78;;;27.40;92.30;;;;;;5096042;28;20176;-90
2023/06/09 12:08:03;;;;;;;7.38;4.47;;;27.50;93.80;;;;;;5096277;28;20173;-90
2023/06/09 12:10:30;;;;;;;9.75;4.57;;;27.80;91.70;;;;;;5096437;28;20181;-90
2023/06/09 12:12:57;;;;;;;7.80;4.97;;;28.20;92.00;;;;;;5096163;28;20176;-92
2023/06/09 12:15:24;;;;;;;6.45;4.78;;;28.30;90.90;;;;;;5096308;28;20221;-93
2023/06/09 12:17:52;;;;;;;6.65;4.22;;;28.30;91.80;;;;;;5096281;28;20204;-92
2023/06/09 12:20:31;;;;;;;10.38;4.70;;;28.20;90.90;;;;;;5096849;28;20173;-89
2023/06/09 12:22:58;;;;;;;7.05;4.32;;;27.90;91.00;;;;;;5095873;28;20176;-91
2023/06/09 12:25:26;;;;;;;7.65;4.97;;;27.80;89.70;;;;;;5096301;28;20179;-90
2023/06/09 12:28:12;;;;;;;7.65;4.35;;;27.60;89.70;;;;;;5096010;28;20176;-90
2023/06/09 12:30:42;;;;;;;6.03;4.80;;;27.40;90.90;;;;;;5094977;28;20505;-91
2023/06/09 12:33:12;;;;;;;6.75;4.22;;;27.30;92.40;;;;;;5095868;28;20168;-90
2023/06/09 12:35:43;;;;;;;8.05;4.50;;;27.00;91.70;;;;;;5095643;28;20668;-89
2023/06/09 12:38:16;;;;;;;10.50;4.63;;;26.80;92.40;;;;;;5095860;28;20176;-89
2023/06/09 12:41:03;;;;;;;7.10;4.88;;;26.50;93.30;;;;;;5095571;28;20169;-89
2023/06/09 12:43:49;;;;;;;6.45;4.53;;;26.30;92.90;;;;;;5095541;28;20315;-89
2023/06/09 12:46:29;;;;;;;5.97;4.60;;;26.30;93.50;;;;;;5095451;28;20221;-91
2023/06/09 12:49:06;;;;;;;6.43;4.40;;;26.70;95.50;;;;;;5095478;28;20188;-88
2023/06/09 12:51:35;;;;;;;8.45;5.18;;;26.90;93.70;;;;;;5095323;28;20234;-90
2023/06/09 12:54:02;;;;;;;5.68;4.40;;;27.10;94.60;;;;;;5095372;28;20165;-92